Time;durP1;ratioP1;P1;durP2;ratioP2;P2;SDS_P1;SDS_P2;PMS_P1;PMS_P2;Temp;Humidity;BMP_temperature;BMP_pressure;BME280_temperature;BME280_humidity;BME280_pressure;Samples;Min_cycle;Max_cycle;Signal;HPM_P1;HPM_P2
2021/06/17 00:01:49;;;;;;;8.20;4.22;;;24.80;99.90;;;;;;4165926;28;20251;-90
2021/06/17 00:03:49;;;;;;;7.57;4.45;;;24.80;99.90;;;;;;4182576;28;20168;-91
2021/06/17 00:05:50;;;;;;;14.20;4.68;;;24.70;99.90;;;;;;4166061;28;20187;-91
2021/06/17 00:07:51;;;;;;;6.05;4.20;;;24.60;99.90;;;;;;4166181;28;20164;-91
2021/06/17 00:09:52;;;;;;;6.20;4.45;;;24.60;99.90;;;;;;4182290;28;20176;-90
2021/06/17 00:12:00;;;;;;;10.05;4.40;;;24.60;99.90;;;;;;4165775;28;20183;-92
2021/06/17 00:14:00;;;;;;;8.98;4.78;;;24.70;99.90;;;;;;4165705;28;20191;-93
2021/06/17 00:16:02;;;;;;;8.10;4.60;;;24.70;99.90;;;;;;4182065;28;20744;-90
2021/06/17 00:18:05;;;;;;;5.85;4.00;;;24.70;99.90;;;;;;4165680;28;20169;-91
2021/06/17 00:20:06;;;;;;;9.25;4.63;;;24.80;99.90;;;;;;4182192;28;20646;-91
2021/06/17 00:22:07;;;;;;;12.25;4.55;;;24.70;99.90;;;;;;4165402;28;20195;-92
2021/06/17 00:24:08;;;;;;;9.85;4.28;;;24.70;99.90;;;;;;4181831;28;20214;-91
2021/06/17 00:26:09;;;;;;;6.78;4.28;;;24.60;99.90;;;;;;4165480;28;20678;-91
2021/06/17 00:28:11;;;;;;;10.70;4.60;;;24.70;99.90;;;;;;4165273;28;20168;-91
2021/06/17 00:30:12;;;;;;;11.07;4.55;;;24.70;99.90;;;;;;4165122;28;20172;-90
2021/06/17 00:32:13;;;;;;;8.73;4.70;;;24.70;99.90;;;;;;4165019;28;20681;-91
2021/06/17 00:34:14;;;;;;;10.75;4.63;;;24.70;99.90;;;;;;4165073;28;20176;-91
2021/06/17 00:36:15;;;;;;;10.68;4.78;;;24.70;99.90;;;;;;4164947;28;20521;-91
2021/06/17 00:38:16;;;;;;;7.32;4.60;;;24.70;99.90;;;;;;4181596;28;20234;-90
2021/06/17 00:40:17;;;;;;;7.28;4.60;;;24.70;99.90;;;;;;4165134;28;20176;-91
2021/06/17 00:42:18;;;;;;;7.13;4.55;;;24.60;99.90;;;;;;4181564;28;20203;-92
2021/06/17 00:44:19;;;;;;;8.63;4.50;;;24.60;99.90;;;;;;4181649;28;20183;-92
2021/06/17 00:46:20;;;;;;;5.93;4.57;;;24.50;99.90;;;;;;4164855;28;20690;-91
2021/06/17 00:48:21;;;;;;;7.68;4.70;;;24.60;99.90;;;;;;4181772;28;20206;-92
2021/06/17 00:50:27;;;;;;;9.73;4.70;;;24.70;99.90;;;;;;4165331;28;20184;-91
2021/06/17 00:52:29;;;;;;;10.15;4.50;;;24.70;99.90;;;;;;4165358;28;20609;-91
2021/06/17 00:54:32;;;;;;;5.47;4.30;;;24.80;99.90;;;;;;4181775;28;20187;-91
2021/06/17 00:56:34;;;;;;;8.02;4.45;;;24.70;99.90;;;;;;4165015;28;20176;-91
2021/06/17 00:58:35;;;;;;;9.02;4.45;;;24.60;99.90;;;;;;4181639;28;20213;-91
2021/06/17 01:00:36;;;;;;;8.70;4.30;;;24.70;99.90;;;;;;4181525;28;20175;-91
2021/06/17 01:02:37;;;;;;;9.15;4.45;;;24.70;99.90;;;;;;4164932;28;20606;-91
2021/06/17 01:04:38;;;;;;;12.23;4.50;;;24.70;99.90;;;;;;4164885;28;20168;-90
2021/06/17 01:06:40;;;;;;;5.75;3.70;;;24.70;99.90;;;;;;4165104;28;20257;-92
2021/06/17 01:08:59;;;;;;;6.88;4.43;;;24.90;99.90;;;;;;4165024;28;20230;-91
2021/06/17 01:11:22;;;;;;;13.65;4.55;;;25.10;99.90;;;;;;4165021;28;20191;-90
2021/06/17 01:13:34;;;;;;;10.52;4.50;;;25.10;99.90;;;;;;4164811;28;20188;-90
2021/06/17 01:15:51;;;;;;;10.05;4.63;;;25.10;99.90;;;;;;4164660;28;20564;-91
2021/06/17 01:18:02;;;;;;;12.85;4.63;;;25.40;99.90;;;;;;4164855;28;20168;-91
2021/06/17 01:20:24;;;;;;;7.60;4.10;;;25.10;99.90;;;;;;4164658;28;20580;-90
2021/06/17 01:22:38;;;;;;;10.77;4.82;;;25.40;99.90;;;;;;4180938;28;20196;-93
2021/06/17 01:24:56;;;;;;;6.80;4.50;;;25.70;99.90;;;;;;4181190;28;20270;-90
2021/06/17 01:27:15;;;;;;;10.25;4.50;;;26.00;99.90;;;;;;4164662;28;20208;-91
2021/06/17 01:29:23;;;;;;;12.43;4.35;;;25.90;99.90;;;;;;4164461;28;20652;-91
2021/06/17 01:31:30;;;;;;;8.52;4.93;;;25.60;99.90;;;;;;4180961;28;20193;-90
2021/06/17 01:33:35;;;;;;;8.52;4.38;;;25.70;99.90;;;;;;4164729;28;20179;-90
2021/06/17 01:35:43;;;;;;;8.98;4.63;;;25.60;99.90;;;;;;4164433;28;20278;-91
2021/06/17 01:37:45;;;;;;;8.45;4.88;;;25.70;99.90;;;;;;4164570;28;20180;-90
2021/06/17 01:39:46;;;;;;;8.88;5.10;;;25.90;99.90;;;;;;4181297;28;20202;-91
2021/06/17 01:41:49;;;;;;;8.25;4.63;;;26.10;99.90;;;;;;4181205;28;20188;-91
2021/06/17 01:43:51;;;;;;;10.60;5.07;;;26.20;99.90;;;;;;4164820;28;20175;-91
2021/06/17 01:45:52;;;;;;;10.32;4.97;;;26.10;99.90;;;;;;4184421;28;20647;-90
2021/06/17 01:47:54;;;;;;;12.52;5.43;;;26.00;99.90;;;;;;4167941;28;20612;-90
2021/06/17 01:49:56;;;;;;;13.95;5.53;;;26.00;99.90;;;;;;4184672;28;20183;-90
2021/06/17 01:51:58;;;;;;;7.88;4.75;;;25.90;99.90;;;;;;4184400;28;20563;-91
2021/06/17 01:54:01;;;;;;;14.18;5.00;;;25.70;99.90;;;;;;4189862;22;20293;-89
2021/06/17 01:56:02;;;;;;;6.60;4.63;;;25.70;99.90;;;;;;4200893;28;20202;-88
2021/06/17 01:58:07;;;;;;;9.25;5.20;;;25.30;99.90;;;;;;4184108;28;20642;-88
2021/06/17 02:00:08;;;;;;;8.73;4.82;;;25.30;99.90;;;;;;4167653;28;20172;-90
2021/06/17 02:02:10;;;;;;;8.25;5.50;;;25.00;99.90;;;;;;4167690;28;20691;-88
2021/06/17 02:04:11;;;;;;;9.80;5.25;;;25.10;99.90;;;;;;4200841;28;20171;-89
2021/06/17 02:06:15;;;;;;;7.13;4.80;;;25.00;99.90;;;;;;4167396;28;20220;-90
2021/06/17 02:08:18;;;;;;;5.55;4.43;;;25.00;99.90;;;;;;4185172;28;20690;-91
2021/06/17 02:10:20;;;;;;;5.20;4.47;;;24.70;99.90;;;;;;4183986;28;20182;-89
2021/06/17 02:12:22;;;;;;;7.53;4.38;;;24.40;99.90;;;;;;4184000;28;20644;-90
2021/06/17 02:14:25;;;;;;;11.02;4.30;;;24.10;99.90;;;;;;4184189;28;20192;-88
2021/06/17 02:16:29;;;;;;;13.70;4.60;;;23.90;99.90;;;;;;4167526;28;20236;-89
2021/06/17 02:18:31;;;;;;;9.85;4.22;;;23.80;99.90;;;;;;4167479;28;20609;-90
2021/06/17 02:20:33;;;;;;;9.25;4.68;;;23.70;99.90;;;;;;4184162;28;20168;-89
2021/06/17 02:22:41;;;;;;;6.55;4.30;;;23.70;99.90;;;;;;4183937;28;20567;-88
2021/06/17 02:24:47;;;;;;;7.75;5.03;;;23.60;99.90;;;;;;4167468;28;20706;-88
2021/06/17 02:26:51;;;;;;;8.95;5.13;;;23.70;99.90;;;;;;4167335;28;20184;-90
2021/06/17 02:28:53;;;;;;;7.55;4.78;;;23.70;99.90;;;;;;4167730;28;20168;-89
2021/06/17 02:30:58;;;;;;;9.90;4.95;;;23.80;99.90;;;;;;4183967;28;20179;-87
2021/06/17 02:33:01;;;;;;;9.85;4.57;;;23.80;99.90;;;;;;4184119;28;20545;-90
2021/06/17 02:35:04;;;;;;;10.00;4.50;;;23.80;99.90;;;;;;4183969;28;20262;-90
2021/06/17 02:37:05;;;;;;;7.90;3.95;;;23.80;99.90;;;;;;4167408;28;20171;-90
2021/06/17 02:39:08;;;;;;;7.25;4.05;;;23.80;99.90;;;;;;4183581;28;20179;-90
2021/06/17 02:41:12;;;;;;;11.65;4.18;;;23.80;99.90;;;;;;4183528;28;20258;-90
2021/06/17 02:43:16;;;;;;;7.22;4.07;;;23.90;99.90;;;;;;4200383;28;20191;-90
2021/06/17 02:45:17;;;;;;;11.75;4.00;;;23.90;99.90;;;;;;4183668;28;20223;-91
2021/06/17 02:47:18;;;;;;;6.22;3.53;;;23.90;99.90;;;;;;4183614;28;20237;-92
2021/06/17 02:49:19;;;;;;;4.72;3.40;;;23.90;99.90;;;;;;4167172;28;20270;-88
2021/06/17 02:51:21;;;;;;;9.65;3.50;;;23.80;99.90;;;;;;4167157;28;20245;-91
2021/06/17 02:53:22;;;;;;;9.20;3.45;;;23.80;99.90;;;;;;4167046;28;20591;-90
2021/06/17 02:55:23;;;;;;;8.60;3.50;;;23.90;99.90;;;;;;4166999;28;20177;-89
2021/06/17 02:57:51;;;;;;;4.93;3.67;;;23.90;99.90;;;;;;4167268;28;20179;-90
2021/06/17 03:00:06;;;;;;;4.38;3.40;;;23.90;99.90;;;;;;4166933;28;20529;-88
2021/06/17 03:02:36;;;;;;;5.60;3.80;;;23.90;99.90;;;;;;4183358;28;20199;-90
2021/06/17 03:04:45;;;;;;;5.47;3.60;;;24.00;99.90;;;;;;4183347;28;20297;-91
2021/06/17 03:06:52;;;;;;;7.18;3.83;;;23.90;99.90;;;;;;4166878;28;20628;-91
2021/06/17 03:08:58;;;;;;;4.68;3.75;;;23.80;99.90;;;;;;4183267;28;20179;-90
2021/06/17 03:11:05;;;;;;;9.38;3.97;;;23.80;99.90;;;;;;4183087;28;20245;-90
2021/06/17 03:13:08;;;;;;;7.10;3.38;;;23.80;99.90;;;;;;4183031;28;20271;-88
2021/06/17 03:15:10;;;;;;;8.02;3.60;;;23.70;99.90;;;;;;4183882;28;20199;-88
2021/06/17 03:17:13;;;;;;;8.60;3.60;;;23.70;99.90;;;;;;4183075;28;20167;-89
2021/06/17 03:19:17;;;;;;;6.80;3.83;;;23.70;99.90;;;;;;4166823;28;20172;-90
2021/06/17 03:21:19;;;;;;;8.98;3.60;;;23.60;99.90;;;;;;4200078;28;20261;-91
2021/06/17 03:23:21;;;;;;;10.30;4.45;;;23.60;99.90;;;;;;4183147;28;20290;-91
2021/06/17 03:25:25;;;;;;;14.73;3.63;;;23.60;99.90;;;;;;4182714;28;20199;-88
2021/06/17 03:27:26;;;;;;;4.40;3.30;;;23.70;99.90;;;;;;4199460;28;20181;-90
2021/06/17 03:29:33;;;;;;;9.25;3.60;;;23.70;99.90;;;;;;4182860;28;20177;-88
2021/06/17 03:31:35;;;;;;;8.38;3.22;;;23.60;99.90;;;;;;4166119;28;20180;-89
2021/06/17 03:33:38;;;;;;;6.80;3.42;;;23.60;99.90;;;;;;4166387;28;20647;-88
2021/06/17 03:35:40;;;;;;;7.07;3.47;;;23.60;99.90;;;;;;4166586;28;20723;-90
2021/06/17 03:37:41;;;;;;;10.80;3.15;;;23.40;99.90;;;;;;4166306;28;20232;-89
2021/06/17 03:39:44;;;;;;;7.05;3.30;;;23.50;99.90;;;;;;4166509;28;20172;-90
2021/06/17 03:41:45;;;;;;;6.25;2.78;;;23.50;99.90;;;;;;4166547;28;20187;-91
2021/06/17 03:43:48;;;;;;;5.68;2.65;;;23.50;99.90;;;;;;4182794;28;20167;-88
2021/06/17 03:45:50;;;;;;;4.72;2.95;;;23.50;99.90;;;;;;4165574;28;20211;-90
2021/06/17 03:47:53;;;;;;;4.95;3.05;;;23.50;99.90;;;;;;4182670;28;20168;-90
2021/06/17 03:49:55;;;;;;;5.25;3.35;;;23.50;99.90;;;;;;4182663;28;20172;-88
2021/06/17 03:51:57;;;;;;;9.60;3.33;;;23.60;99.90;;;;;;4182565;28;20274;-90
2021/06/17 03:53:58;;;;;;;4.07;3.08;;;23.60;99.90;;;;;;4182747;28;20210;-88
2021/06/17 03:55:59;;;;;;;9.80;3.10;;;23.60;99.90;;;;;;4182619;28;20183;-90
2021/06/17 03:58:00;;;;;;;7.65;3.08;;;23.50;99.90;;;;;;4165966;28;20260;-91
2021/06/17 04:00:01;;;;;;;7.25;2.83;;;23.60;99.90;;;;;;4165942;28;20213;-89
2021/06/17 04:02:02;;;;;;;7.25;3.17;;;23.60;99.90;;;;;;4182191;28;20234;-91
2021/06/17 04:04:03;;;;;;;6.72;3.53;;;23.70;99.90;;;;;;4166050;28;20176;-89
2021/06/17 04:06:08;;;;;;;4.88;2.83;;;23.60;99.90;;;;;;4182524;28;20207;-89
2021/06/17 04:08:11;;;;;;;4.05;2.78;;;23.50;99.90;;;;;;4182094;28;20175;-92
2021/06/17 04:10:15;;;;;;;10.55;3.58;;;23.60;99.90;;;;;;4182429;28;20239;-88
2021/06/17 04:12:22;;;;;;;4.43;2.58;;;23.70;99.90;;;;;;4198695;28;20666;-89
2021/06/17 04:14:24;;;;;;;9.70;2.97;;;23.70;99.90;;;;;;4182118;28;20205;-88
2021/06/17 04:16:29;;;;;;;13.38;3.13;;;23.70;99.90;;;;;;4182034;28;20182;-91
2021/06/17 04:18:31;;;;;;;9.98;3.17;;;23.80;99.90;;;;;;4182227;28;20662;-88
2021/06/17 04:20:43;;;;;;;6.13;2.88;;;23.80;99.90;;;;;;4182184;28;20175;-92
2021/06/17 04:22:46;;;;;;;7.47;2.78;;;23.90;99.90;;;;;;4181965;28;20195;-90
2021/06/17 04:24:51;;;;;;;10.15;2.80;;;24.00;99.90;;;;;;4182332;28;20207;-91
2021/06/17 04:26:55;;;;;;;6.88;2.50;;;24.00;99.90;;;;;;4182129;28;20199;-88
2021/06/17 04:28:57;;;;;;;6.63;2.80;;;24.00;99.90;;;;;;4182186;28;20186;-89
2021/06/17 04:30:59;;;;;;;7.85;3.05;;;24.10;99.90;;;;;;4182024;28;20168;-88
2021/06/17 04:33:03;;;;;;;7.90;3.22;;;24.10;99.90;;;;;;4165436;28;20202;-87
2021/06/17 04:35:05;;;;;;;11.75;2.83;;;24.20;99.90;;;;;;4165702;28;20164;-89
2021/06/17 04:37:09;;;;;;;10.07;2.95;;;24.40;99.90;;;;;;4165575;28;20683;-90
2021/06/17 04:39:10;;;;;;;6.05;2.78;;;24.50;99.90;;;;;;4165346;28;20172;-92
2021/06/17 04:41:11;;;;;;;10.75;2.95;;;24.50;99.90;;;;;;4165135;28;20184;-88
2021/06/17 04:43:14;;;;;;;7.18;2.58;;;24.50;99.90;;;;;;4181685;28;20698;-88
2021/06/17 04:45:15;;;;;;;4.82;2.75;;;24.60;99.90;;;;;;4181750;28;20268;-91
2021/06/17 04:47:16;;;;;;;6.78;3.05;;;24.60;99.90;;;;;;4181558;28;20167;-88
2021/06/17 04:49:18;;;;;;;7.95;2.83;;;24.70;99.90;;;;;;4165450;28;20277;-89
2021/06/17 04:51:19;;;;;;;5.70;2.92;;;24.90;99.90;;;;;;4181516;28;20203;-92
2021/06/17 04:53:20;;;;;;;5.70;3.03;;;25.00;99.90;;;;;;4181370;28;20233;-91
2021/06/17 04:55:20;;;;;;;10.90;3.00;;;25.00;99.90;;;;;;4181870;28;20627;-92
2021/06/17 04:57:21;;;;;;;6.13;3.13;;;25.00;99.90;;;;;;4181652;28;20270;-91
2021/06/17 04:59:22;;;;;;;5.97;2.78;;;24.90;99.90;;;;;;4165080;28;20301;-90
2021/06/17 05:01:23;;;;;;;4.63;2.83;;;24.80;99.90;;;;;;4164965;28;20180;-91
2021/06/17 05:03:23;;;;;;;8.05;2.83;;;24.60;99.90;;;;;;4164957;28;20683;-90
2021/06/17 05:05:24;;;;;;;15.93;3.15;;;24.40;99.90;;;;;;4180989;28;20371;-88
2021/06/17 05:07:39;;;;;;;10.80;3.28;;;24.00;99.90;;;;;;4181350;28;20230;-88
2021/06/17 05:11:59;;;;;;;10.93;3.65;;;23.60;99.90;;;;;;4181475;28;20688;-91
2021/06/17 05:14:00;;;;;;;9.07;3.10;;;23.50;99.90;;;;;;4181319;28;20171;-87
2021/06/17 05:16:02;;;;;;;8.10;3.03;;;23.30;99.90;;;;;;4164817;28;20168;-88
2021/06/17 05:18:03;;;;;;;9.13;2.70;;;23.30;99.90;;;;;;4164768;28;20218;-90
2021/06/17 05:20:06;;;;;;;7.57;2.55;;;23.40;99.90;;;;;;4180645;28;20168;-90
2021/06/17 05:22:09;;;;;;;8.30;2.35;;;23.40;99.90;;;;;;4164873;28;20531;-88
2021/06/17 05:24:10;;;;;;;10.52;3.03;;;23.50;99.90;;;;;;4164826;28;20168;-88
2021/06/17 05:26:11;;;;;;;8.63;2.38;;;23.60;99.90;;;;;;4181255;28;20293;-87
2021/06/17 05:28:17;;;;;;;9.50;2.17;;;23.80;99.90;;;;;;4164692;28;20218;-89
2021/06/17 05:30:18;;;;;;;9.20;2.35;;;24.10;99.90;;;;;;4164433;28;20272;-88
2021/06/17 05:32:19;;;;;;;8.82;2.30;;;24.20;99.90;;;;;;4164462;28;20680;-89
2021/06/17 05:34:20;;;;;;;9.43;2.50;;;24.40;99.90;;;;;;4181304;28;20175;-89
2021/06/17 05:36:20;;;;;;;13.77;2.33;;;24.60;99.90;;;;;;4164570;28;20190;-89
2021/06/17 05:38:22;;;;;;;15.50;2.05;;;24.80;99.90;;;;;;4181508;28;20214;-89
2021/06/17 05:40:23;;;;;;;17.58;2.45;;;24.80;99.90;;;;;;4180984;28;20171;-89
2021/06/17 05:42:24;;;;;;;10.10;2.65;;;25.00;99.90;;;;;;4164402;28;20789;-88
2021/06/17 05:44:24;;;;;;;14.00;1.90;;;25.20;99.90;;;;;;4164493;28;20172;-89
2021/06/17 05:46:25;;;;;;;11.48;2.15;;;25.10;99.90;;;;;;4180973;28;20272;-89
2021/06/17 05:48:28;;;;;;;11.80;2.33;;;25.20;99.90;;;;;;4164510;28;20167;-89
2021/06/17 05:50:29;;;;;;;8.15;2.33;;;25.20;99.90;;;;;;4164649;28;20179;-88
2021/06/17 05:52:30;;;;;;;9.38;1.73;;;25.10;99.90;;;;;;4164553;28;20192;-89
2021/06/17 05:54:30;;;;;;;11.18;2.28;;;25.00;99.90;;;;;;4164307;28;20184;-89
2021/06/17 05:56:31;;;;;;;13.13;2.25;;;25.00;99.90;;;;;;4164798;28;20247;-89
2021/06/17 05:58:34;;;;;;;12.05;1.85;;;24.90;99.90;;;;;;4181002;28;20175;-89
2021/06/17 06:00:35;;;;;;;11.13;1.60;;;24.90;99.90;;;;;;4164420;28;20176;-90
2021/06/17 06:02:36;;;;;;;14.63;1.90;;;24.90;99.90;;;;;;4180694;28;20195;-87
2021/06/17 06:04:37;;;;;;;12.63;1.90;;;24.80;99.90;;;;;;4164559;28;20168;-89
2021/06/17 06:06:37;;;;;;;8.60;1.70;;;24.80;99.90;;;;;;4181053;28;20187;-89
2021/06/17 06:08:38;;;;;;;9.63;2.08;;;24.70;99.90;;;;;;4180982;28;20179;-90
2021/06/17 06:10:43;;;;;;;11.98;2.10;;;24.90;99.90;;;;;;4180804;28;20179;-88
2021/06/17 06:12:44;;;;;;;8.70;1.80;;;24.90;99.90;;;;;;4181783;28;20186;-88
2021/06/17 06:14:45;;;;;;;10.75;1.75;;;24.80;99.90;;;;;;4180756;28;20211;-89
2021/06/17 06:16:46;;;;;;;13.75;2.30;;;24.80;99.90;;;;;;4180859;28;20171;-90
2021/06/17 06:18:47;;;;;;;9.30;1.70;;;25.00;99.90;;;;;;4164300;28;20171;-89
2021/06/17 06:20:48;;;;;;;15.95;2.10;;;25.10;99.90;;;;;;4164124;28;20176;-88
2021/06/17 06:22:49;;;;;;;12.65;2.20;;;25.20;99.90;;;;;;4180545;28;20223;-89
2021/06/17 06:24:50;;;;;;;6.70;1.80;;;25.50;99.90;;;;;;4180638;28;20196;-88
2021/06/17 06:26:52;;;;;;;12.18;2.13;;;25.50;99.90;;;;;;4164140;28;20184;-88
2021/06/17 06:28:53;;;;;;;16.70;2.30;;;25.70;99.90;;;;;;4164271;28;20250;-87
2021/06/17 06:30:54;;;;;;;12.13;2.13;;;25.80;99.90;;;;;;4182142;28;20179;-90
2021/06/17 06:32:55;;;;;;;21.83;2.17;;;25.70;99.90;;;;;;4183650;28;20196;-88
2021/06/17 06:34:58;;;;;;;17.17;1.95;;;25.70;99.90;;;;;;4167235;28;20173;-88
2021/06/17 06:36:58;;;;;;;11.15;1.90;;;25.60;99.90;;;;;;4183843;28;20734;-88
2021/06/17 06:38:59;;;;;;;12.80;2.30;;;25.30;99.90;;;;;;4167270;28;20180;-89
2021/06/17 06:41:00;;;;;;;7.75;2.17;;;25.40;99.90;;;;;;4183360;28;20620;-88
2021/06/17 06:43:01;;;;;;;11.25;2.00;;;25.40;99.90;;;;;;4166914;28;20192;-88
2021/06/17 06:45:02;;;;;;;7.40;2.10;;;25.40;99.90;;;;;;4166926;28;20200;-88
2021/06/17 06:47:03;;;;;;;8.23;2.17;;;25.40;99.90;;;;;;4167057;28;20230;-89
2021/06/17 06:49:04;;;;;;;13.13;2.00;;;25.40;99.90;;;;;;4183701;28;20172;-88
2021/06/17 06:51:05;;;;;;;7.20;1.98;;;25.50;99.90;;;;;;4183512;28;20183;-89
2021/06/17 06:53:06;;;;;;;8.95;1.98;;;25.60;99.90;;;;;;4166865;28;20191;-89
2021/06/17 06:55:07;;;;;;;11.18;2.10;;;25.70;99.90;;;;;;4167317;28;20691;-88
2021/06/17 06:57:08;;;;;;;13.73;2.30;;;26.50;99.90;;;;;;4183419;28;20176;-89
2021/06/17 06:59:08;;;;;;;7.07;2.20;;;26.30;99.90;;;;;;4167003;28;20176;-88
2021/06/17 07:01:09;;;;;;;6.38;2.10;;;25.90;99.90;;;;;;4166757;28;20219;-89
2021/06/17 07:03:11;;;;;;;7.90;2.28;;;26.40;99.90;;;;;;4166586;28;20261;-88
2021/06/17 07:05:12;;;;;;;11.95;2.17;;;26.70;99.90;;;;;;4166597;28;20342;-88
2021/06/17 07:07:13;;;;;;;8.07;2.45;;;26.10;99.90;;;;;;4183042;28;20227;-89
2021/06/17 07:09:14;;;;;;;9.68;2.20;;;26.30;99.90;;;;;;4199584;28;20170;-88
2021/06/17 07:11:15;;;;;;;8.02;2.20;;;25.90;99.90;;;;;;4183125;28;20175;-89
2021/06/17 07:13:16;;;;;;;11.38;2.38;;;25.20;99.90;;;;;;4166641;28;20199;-88
2021/06/17 07:15:17;;;;;;;8.60;2.28;;;25.40;99.90;;;;;;4166839;28;20180;-89
2021/06/17 07:17:18;;;;;;;8.82;2.10;;;25.30;99.90;;;;;;4183362;28;20171;-87
2021/06/17 07:19:19;;;;;;;14.30;2.40;;;25.50;99.90;;;;;;4183116;28;20178;-89
2021/06/17 07:21:19;;;;;;;9.60;2.13;;;24.90;99.90;;;;;;4166653;28;20180;-89
2021/06/17 07:23:21;;;;;;;11.85;2.40;;;24.40;99.90;;;;;;4182976;28;20675;-89
2021/06/17 07:25:25;;;;;;;7.40;2.25;;;24.00;99.90;;;;;;4166530;28;20204;-88
2021/06/17 07:27:26;;;;;;;8.82;2.28;;;23.70;99.90;;;;;;4183050;28;20202;-88
2021/06/17 07:29:27;;;;;;;13.20;2.15;;;23.60;99.90;;;;;;4182725;28;20178;-89
2021/06/17 07:31:27;;;;;;;11.73;2.22;;;23.60;99.90;;;;;;4166347;28;20179;-89
2021/06/17 07:33:28;;;;;;;14.90;2.42;;;23.70;99.90;;;;;;4166112;28;20700;-87
2021/06/17 07:35:29;;;;;;;10.02;2.30;;;23.80;99.90;;;;;;4166337;28;20180;-89
2021/06/17 07:37:30;;;;;;;5.93;1.98;;;23.90;99.90;;;;;;4182754;28;20156;-88
2021/06/17 07:39:30;;;;;;;11.55;2.28;;;23.80;99.90;;;;;;4166161;28;20215;-89
2021/06/17 07:41:32;;;;;;;8.68;2.17;;;23.70;99.90;;;;;;4182379;28;20167;-88
2021/06/17 07:43:33;;;;;;;12.48;2.67;;;23.80;99.90;;;;;;4182387;28;20702;-88
2021/06/17 07:45:35;;;;;;;10.63;2.13;;;23.90;99.90;;;;;;4165953;28;20195;-88
2021/06/17 07:47:37;;;;;;;7.32;2.10;;;23.90;99.90;;;;;;4166155;28;20255;-88
2021/06/17 07:49:38;;;;;;;12.48;2.22;;;23.90;99.90;;;;;;4166000;28;20703;-88
2021/06/17 07:51:38;;;;;;;9.70;2.30;;;24.20;99.90;;;;;;4182180;28;20250;-89
2021/06/17 07:53:39;;;;;;;10.85;2.53;;;24.00;99.90;;;;;;4182807;28;20179;-89
2021/06/17 07:55:40;;;;;;;10.63;2.30;;;24.00;99.90;;;;;;4166067;28;20180;-88
2021/06/17 07:57:41;;;;;;;13.13;2.72;;;24.00;99.90;;;;;;4182630;28;20172;-90
2021/06/17 07:59:41;;;;;;;8.23;2.17;;;24.30;99.90;;;;;;4182389;28;20686;-88
2021/06/17 08:01:42;;;;;;;10.45;2.10;;;24.60;99.90;;;;;;4165787;28;20180;-88
2021/06/17 08:03:43;;;;;;;12.10;2.30;;;24.50;99.90;;;;;;4182619;28;20677;-89
2021/06/17 08:05:44;;;;;;;9.50;2.33;;;24.50;99.90;;;;;;4166117;28;20204;-89
2021/06/17 08:07:45;;;;;;;10.38;2.63;;;24.90;99.90;;;;;;4165955;28;20534;-88
2021/06/17 08:09:45;;;;;;;11.52;2.25;;;25.10;99.90;;;;;;4198932;28;20171;-88
2021/06/17 08:11:47;;;;;;;10.15;2.40;;;25.30;99.90;;;;;;4182124;28;20176;-91
2021/06/17 08:13:48;;;;;;;6.15;2.30;;;25.40;99.90;;;;;;4182232;28;20625;-89
2021/06/17 08:15:49;;;;;;;9.63;2.20;;;25.60;99.90;;;;;;4182090;28;20184;-89
2021/06/17 08:17:49;;;;;;;14.32;2.38;;;26.00;99.90;;;;;;4165492;28;20175;-88
2021/06/17 08:19:50;;;;;;;9.45;2.10;;;26.50;99.90;;;;;;4165486;28;20176;-89
2021/06/17 08:21:51;;;;;;;9.80;2.30;;;26.90;99.90;;;;;;4165317;28;20188;-89
2021/06/17 08:23:55;;;;;;;6.55;2.25;;;26.70;99.90;;;;;;4165836;28;20184;-90
2021/06/17 08:25:55;;;;;;;7.82;2.08;;;26.50;99.90;;;;;;4165434;28;20211;-90
2021/06/17 08:28:00;;;;;;;9.85;2.25;;;26.80;99.90;;;;;;4165595;28;20168;-89
2021/06/17 08:30:06;;;;;;;11.20;2.75;;;27.80;99.90;;;;;;4165538;28;20656;-90
2021/06/17 08:32:08;;;;;;;13.35;2.63;;;28.90;99.90;;;;;;4165470;28;20188;-89
2021/06/17 08:34:08;;;;;;;8.55;2.30;;;29.90;99.90;;;;;;4165393;28;20206;-89
2021/06/17 08:36:10;;;;;;;9.10;2.30;;;29.90;99.90;;;;;;4165326;28;20187;-89
2021/06/17 08:38:11;;;;;;;17.92;3.05;;;29.80;99.90;;;;;;4165349;28;20164;-90
2021/06/17 08:40:12;;;;;;;22.08;6.35;;;29.90;99.90;;;;;;4181795;28;20176;-89
2021/06/17 08:42:13;;;;;;;17.85;6.43;;;30.50;99.90;;;;;;4165323;28;20187;-90
2021/06/17 08:44:14;;;;;;;25.55;3.33;;;32.10;99.90;;;;;;4181839;28;20183;-91
2021/06/17 08:46:14;;;;;;;20.10;4.30;;;33.00;99.90;;;;;;4181697;28;20679;-92
2021/06/17 08:48:15;;;;;;;13.00;3.60;;;33.30;99.90;;;;;;4181876;28;20261;-91
2021/06/17 08:50:16;;;;;;;7.15;2.40;;;33.60;99.90;;;;;;4181743;28;20560;-90
2021/06/17 08:52:19;;;;;;;14.73;2.20;;;34.30;99.90;;;;;;4181652;28;20191;-88
2021/06/17 08:54:20;;;;;;;10.40;2.20;;;34.30;99.90;;;;;;4181598;28;20185;-88
2021/06/17 08:56:22;;;;;;;19.10;3.03;;;34.30;99.90;;;;;;4165692;28;20183;-89
2021/06/17 08:58:23;;;;;;;12.25;2.30;;;34.00;99.90;;;;;;4164992;28;20254;-89
2021/06/17 09:00:36;;;;;;;13.30;2.92;;;34.80;99.90;;;;;;4181412;28;20236;-89
2021/06/17 09:02:37;;;;;;;15.65;3.70;;;35.50;99.90;;;;;;4164964;28;20863;-91
2021/06/17 09:04:38;;;;;;;19.08;2.95;;;36.00;99.90;;;;;;4181190;28;20182;-89
2021/06/17 09:06:38;;;;;;;8.35;2.33;;;35.90;99.90;;;;;;4165052;28;20187;-87
2021/06/17 09:08:39;;;;;;;12.25;2.10;;;34.90;99.90;;;;;;4165056;28;20349;-89
2021/06/17 09:10:41;;;;;;;10.80;2.00;;;33.80;99.90;;;;;;4164759;28;20172;-89
2021/06/17 09:12:44;;;;;;;8.48;1.85;;;33.20;99.90;;;;;;4164660;28;20187;-88
2021/06/17 09:14:52;;;;;;;10.93;2.20;;;32.80;99.90;;;;;;4168678;28;20170;-87
2021/06/17 09:17:04;;;;;;;10.70;2.00;;;32.30;99.90;;;;;;4197729;28;20181;-87
2021/06/17 09:19:05;;;;;;;9.57;2.00;;;32.20;99.90;;;;;;4181284;28;20257;-91
2021/06/17 09:21:08;;;;;;;8.77;1.67;;;32.60;99.90;;;;;;4187465;28;20193;-93
2021/06/17 09:23:21;;;;;;;7.35;2.00;;;33.50;99.90;;;;;;4165600;28;20190;-89
2021/06/17 09:25:22;;;;;;;7.95;2.15;;;33.90;99.90;;;;;;4179854;28;20209;-89
2021/06/17 09:27:39;;;;;;;7.22;2.20;;;32.30;99.90;;;;;;4163498;28;20734;-91
2021/06/17 09:29:40;;;;;;;11.15;1.83;;;31.60;99.90;;;;;;4164728;28;20171;-90
2021/06/17 09:31:43;;;;;;;11.80;2.47;;;31.60;99.90;;;;;;4180541;28;20167;-90
2021/06/17 09:33:46;;;;;;;13.05;1.90;;;31.70;99.90;;;;;;4165047;28;20172;-89
2021/06/17 09:35:49;;;;;;;9.05;1.80;;;32.00;99.90;;;;;;4164780;28;20168;-88
2021/06/17 09:37:50;;;;;;;8.27;2.20;;;32.50;99.90;;;;;;4180890;28;20178;-90
2021/06/17 09:39:51;;;;;;;9.65;2.78;;;32.20;99.90;;;;;;4181334;28;20182;-89
2021/06/17 09:41:53;;;;;;;6.85;1.88;;;32.50;99.90;;;;;;4181015;28;20195;-90
2021/06/17 09:43:55;;;;;;;14.55;2.10;;;33.00;99.90;;;;;;4164642;28;20164;-88
2021/06/17 09:46:00;;;;;;;8.75;1.67;;;32.80;99.90;;;;;;4164472;28;20300;-89
2021/06/17 09:48:00;;;;;;;8.52;1.60;;;32.90;99.90;;;;;;4163921;28;20676;-91
2021/06/17 09:50:19;;;;;;;9.45;1.20;;;33.30;99.90;;;;;;4164459;28;20212;-92
2021/06/17 09:52:35;;;;;;;6.35;1.40;;;33.60;99.90;;;;;;4164579;28;20237;-91
2021/06/17 09:54:39;;;;;;;5.47;1.38;;;34.30;99.90;;;;;;4164808;28;20278;-92
2021/06/17 09:56:42;;;;;;;9.90;1.63;;;34.90;99.90;;;;;;4181491;28;20218;-92
2021/06/17 09:58:45;;;;;;;10.43;1.55;;;34.80;99.90;;;;;;4164347;28;20176;-90
2021/06/17 10:00:55;;;;;;;3.67;1.40;;;34.80;99.90;;;;;;4164242;28;20583;-92
2021/06/17 10:03:13;;;;;;;7.68;1.48;;;34.50;99.90;;;;;;4164143;28;20197;-90
2021/06/17 10:05:21;;;;;;;7.32;1.30;;;33.60;99.90;;;;;;4165001;28;20203;-89
2021/06/17 10:07:22;;;;;;;7.57;1.38;;;34.10;99.90;;;;;;4167785;28;20340;-90
2021/06/17 10:09:23;;;;;;;6.97;1.92;;;34.20;99.90;;;;;;4167628;28;20168;-88
2021/06/17 10:11:25;;;;;;;7.88;1.67;;;34.70;99.90;;;;;;4200563;28;20244;-89
2021/06/17 10:13:26;;;;;;;6.28;1.50;;;34.90;99.90;;;;;;4184112;28;20690;-89
2021/06/17 10:15:27;;;;;;;10.25;1.80;;;34.50;99.90;;;;;;4184103;28;20220;-87
2021/06/17 10:17:28;;;;;;;5.22;1.90;;;34.80;99.90;;;;;;4167810;28;20616;-90
2021/06/17 10:19:31;;;;;;;5.97;1.80;;;34.80;99.90;;;;;;4184021;28;20619;-89
2021/06/17 10:21:33;;;;;;;8.02;1.48;;;34.30;99.90;;;;;;4167216;28;20627;-87
2021/06/17 10:23:36;;;;;;;5.50;1.70;;;33.50;99.90;;;;;;4167494;28;20179;-91
2021/06/17 10:25:37;;;;;;;5.72;1.48;;;33.20;99.90;;;;;;4167333;28;20207;-91
2021/06/17 10:27:42;;;;;;;8.80;1.83;;;33.00;99.90;;;;;;4167574;28;20179;-90
2021/06/17 10:29:48;;;;;;;7.63;1.50;;;32.60;99.90;;;;;;4167682;28;20164;-90
2021/06/17 10:31:52;;;;;;;9.80;1.70;;;31.80;99.90;;;;;;4167487;28;20218;-90
2021/06/17 10:33:53;;;;;;;6.28;1.70;;;31.60;99.90;;;;;;4167492;28;20169;-92
2021/06/17 10:36:16;;;;;;;8.98;1.60;;;31.30;99.90;;;;;;4183872;28;20176;-91
2021/06/17 10:38:16;;;;;;;5.47;1.75;;;31.20;99.90;;;;;;4167445;28;20259;-90
2021/06/17 10:40:25;;;;;;;8.52;1.80;;;31.20;99.90;;;;;;4167551;28;20195;-90